Time;durP1;ratioP1;P1;durP2;ratioP2;P2;SDS_P1;SDS_P2;PMS_P1;PMS_P2;Temp;Humidity;BMP_temperature;BMP_pressure;BME280_temperature;BME280_humidity;BME280_pressure;Samples;Min_cycle;Max_cycle;Signal;HPM_P1;HPM_P2
2022/04/08 00:01:28;;;;;;;22.00;15.13;;;12.30;72.90;;;;;;4992559;28;20054;-70
2022/04/08 00:03:56;;;;;;;20.05;15.15;;;12.30;73.10;;;;;;4994567;28;20554;-71
2022/04/08 00:06:22;;;;;;;21.00;14.18;;;12.20;73.10;;;;;;4994572;28;20065;-71
2022/04/08 00:08:51;;;;;;;19.23;13.50;;;12.20;73.00;;;;;;4993455;28;20050;-71
2022/04/08 00:11:17;;;;;;;20.92;13.50;;;12.20;73.30;;;;;;4993085;28;20545;-71
2022/04/08 00:13:42;;;;;;;21.42;13.73;;;12.20;73.70;;;;;;4993246;28;20030;-71
2022/04/08 00:16:08;;;;;;;20.90;13.95;;;12.20;73.70;;;;;;4993654;28;20022;-71
2022/04/08 00:18:35;;;;;;;18.73;13.65;;;;;;;;;;4993335;28;20375;-72
2022/04/08 00:21:01;;;;;;;20.33;14.60;;;;;;;;;;4992684;28;20037;-71
2022/04/08 00:23:27;;;;;;;19.38;14.38;;;;;;;;;;4992770;28;20039;-71
2022/04/08 00:25:54;;;;;;;21.48;13.77;;;;;;;;;;4993222;28;20029;-71
2022/04/08 00:28:20;;;;;;;17.13;12.88;;;;;;;;;;4993039;28;20022;-71
2022/04/08 00:30:46;;;;;;;17.85;9.93;;;;;;;;;;4993541;28;20027;-71
2022/04/08 00:33:12;;;;;;;21.88;9.50;;;;;;;;;;4992947;28;20053;-71
2022/04/08 00:35:38;;;;;;;16.75;9.13;;;;;;;;;;4993930;28;20054;-72
2022/04/08 00:38:04;;;;;;;16.83;8.80;;;;;;;;;;4992210;28;20383;-72
2022/04/08 00:40:30;;;;;;;18.15;8.45;;;;;;;;;;4993427;28;20050;-71
2022/04/08 00:42:56;;;;;;;17.17;7.53;;;;;;;;;;4993797;28;20089;-71
2022/04/08 00:45:22;;;;;;;13.68;7.20;;;;;;;;;;4993241;28;20462;-71
2022/04/08 00:47:48;;;;;;;16.35;7.00;;;;;;;;;;4992439;28;20057;-71
2022/04/08 00:50:14;;;;;;;14.27;7.55;;;;;;;;;;4992041;28;20050;-71
2022/04/08 00:52:41;;;;;;;20.75;7.70;;;;;;;;;;4991806;28;20028;-71
2022/04/08 00:55:08;;;;;;;12.57;6.30;;;;;;;;;;4992689;28;20022;-72
2022/04/08 00:57:34;;;;;;;11.85;6.72;;;;;;;;;;4991110;28;20073;-72
2022/04/08 01:00:08;;;;;;;21.63;7.82;;;;;;;;;;4989602;28;20027;-72
2022/04/08 01:02:34;;;;;;;13.82;7.72;;;;;;;;;;4988995;28;20050;-72
2022/04/08 01:05:00;;;;;;;16.80;8.60;;;;;;;;;;4991211;28;20030;-71
2022/04/08 01:07:26;;;;;;;12.70;7.50;;;;;;;;;;4993114;28;20026;-72
2022/04/08 01:09:52;;;;;;;14.13;7.22;;;;;;;;;;4992369;28;20352;-71
2022/04/08 01:12:19;;;;;;;17.45;7.80;;;;;;;;;;4993045;28;20414;-72
2022/04/08 01:14:45;;;;;;;16.88;7.07;;;;;;;;;;4992561;28;20089;-72
2022/04/08 01:17:11;;;;;;;13.35;5.22;;;;;;;;;;4992546;28;20022;-71
2022/04/08 01:19:37;;;;;;;14.90;5.18;;;;;;;;;;4992261;28;20386;-72
2022/04/08 01:22:03;;;;;;;12.05;4.65;;;;;;;;;;4992569;28;20450;-72
2022/04/08 01:24:30;;;;;;;9.85;5.30;;;;;;;;;;4992726;28;20586;-72
2022/04/08 01:26:56;;;;;;;12.45;5.60;;;;;;;;;;4992138;28;20033;-72
2022/04/08 01:29:22;;;;;;;9.77;4.95;;;;;;;;;;4992653;28;20036;-72
2022/04/08 01:31:48;;;;;;;18.05;5.00;;;;;;;;;;4993312;28;20026;-71
2022/04/08 01:34:14;;;;;;;16.63;4.68;;;;;;;;;;4993442;28;20027;-71
2022/04/08 01:36:41;;;;;;;11.10;4.35;;;;;;;;;;4993310;28;20018;-72
2022/04/08 01:39:07;;;;;;;10.60;4.63;;;;;;;;;;4992731;28;20033;-72
2022/04/08 01:41:33;;;;;;;11.30;4.78;;;;;;;;;;4993071;28;20386;-72
2022/04/08 01:43:59;;;;;;;13.07;4.97;;;;;;;;;;4992006;28;20046;-72
2022/04/08 01:46:26;;;;;;;13.82;5.07;;;;;;;;;;4993282;28;20025;-71
2022/04/08 01:48:54;;;;;;;11.07;4.57;;;;;;;;;;4992990;28;20076;-72
2022/04/08 01:51:21;;;;;;;11.68;3.92;;;;;;;;;;4992040;28;20022;-72
2022/04/08 01:53:47;;;;;;;12.18;4.40;;;;;;;;;;4992747;28;20045;-72
2022/04/08 01:56:13;;;;;;;12.88;4.22;;;;;;;;;;4992834;28;20026;-72
2022/04/08 01:58:39;;;;;;;13.40;5.25;;;;;;;;;;4991680;28;20575;-72
2022/04/08 02:01:05;;;;;;;14.55;3.97;;;;;;;;;;4993468;28;20407;-72
2022/04/08 02:03:33;;;;;;;15.73;3.88;;;;;;;;;;4993395;28;20042;-72
2022/04/08 02:05:59;;;;;;;11.70;4.03;;;;;;;;;;4993486;28;20030;-72
2022/04/08 02:08:25;;;;;;;11.07;3.78;;;;;;;;;;4995301;28;20034;-72
2022/04/08 02:10:53;;;;;;;15.98;3.95;;;;;;;;;;4994956;28;20092;-72
2022/04/08 02:13:19;;;;;;;14.52;4.70;;;;;;;;;;4995318;28;20356;-73
2022/04/08 02:15:46;;;;;;;15.40;4.25;;;;;;;;;;4995496;28;20050;-72
2022/04/08 02:18:12;;;;;;;15.05;4.30;;;;;;;;;;4995788;28;20053;-72
2022/04/08 02:20:38;;;;;;;16.73;4.85;;;;;;;;;;4995207;28;20049;-72
2022/04/08 02:23:04;;;;;;;13.90;4.13;;;;;;;;;;4995759;28;20076;-72
2022/04/08 02:25:30;;;;;;;13.55;4.40;;;;;;;;;;4995460;28;20029;-72
2022/04/08 02:27:56;;;;;;;11.52;4.40;;;;;;;;;;4996668;28;20026;-71
2022/04/08 02:30:23;;;;;;;11.45;4.13;;;;;;;;;;4996038;28;20070;-72
2022/04/08 02:32:49;;;;;;;12.68;4.35;;;;;;;;;;4994594;28;20113;-72
2022/04/08 02:35:15;;;;;;;16.20;4.30;;;;;;;;;;4994091;28;20125;-72
2022/04/08 02:37:41;;;;;;;14.88;3.90;;;;;;;;;;4994659;28;20470;-72
2022/04/08 02:40:07;;;;;;;12.82;4.00;;;;;;;;;;4996296;28;20181;-72
2022/04/08 02:42:33;;;;;;;11.95;3.72;;;;;;;;;;4996125;28;20042;-72
2022/04/08 02:45:00;;;;;;;9.75;3.47;;;;;;;;;;4994946;28;20463;-72
2022/04/08 02:47:26;;;;;;;10.93;3.97;;;;;;;;;;4995402;28;20121;-72
2022/04/08 02:49:52;;;;;;;13.15;3.53;;;;;;;;;;4996158;28;20383;-72
2022/04/08 02:52:18;;;;;;;9.30;3.30;;;;;;;;;;4994919;28;20032;-73
2022/04/08 02:54:44;;;;;;;10.02;3.75;;;;;;;;;;4994240;28;20031;-72
2022/04/08 02:57:10;;;;;;;11.23;4.13;;;;;;;;;;4995713;28;20056;-72
2022/04/08 02:59:36;;;;;;;15.27;3.45;;;;;;;;;;4992390;28;20410;-73
2022/04/08 03:02:02;;;;;;;17.23;3.95;;;;;;;;;;4993562;28;20101;-73
2022/04/08 03:04:28;;;;;;;16.35;3.72;;;;;;;;;;4993371;28;20048;-73
2022/04/08 03:06:55;;;;;;;16.33;4.00;;;;;;;;;;4994606;28;20023;-73
2022/04/08 03:09:21;;;;;;;11.05;3.08;;;;;;;;;;4993892;28;20076;-72
2022/04/08 03:11:47;;;;;;;13.15;3.65;;;;;;;;;;4993801;28;20494;-72
2022/04/08 03:14:13;;;;;;;10.82;3.40;;;;;;;;;;4994609;28;20034;-72
2022/04/08 03:16:39;;;;;;;15.82;4.00;;;;;;;;;;4993333;28;20019;-73
2022/04/08 03:19:05;;;;;;;11.82;3.22;;;;;;;;;;4993050;28;20033;-73
2022/04/08 03:21:31;;;;;;;14.25;3.42;;;;;;;;;;4993689;28;20051;-73
2022/04/08 03:23:58;;;;;;;12.25;3.30;;;;;;;;;;4993606;28;20038;-72
2022/04/08 03:26:25;;;;;;;12.32;3.20;;;;;;;;;;4993182;28;20222;-72
2022/04/08 03:28:51;;;;;;;15.75;3.65;;;;;;;;;;4993525;28;20030;-72
2022/04/08 03:31:17;;;;;;;14.63;3.30;;;;;;;;;;4993444;28;20534;-73
2022/04/08 03:33:43;;;;;;;10.63;3.28;;;;;;;;;;4993864;28;20030;-72
2022/04/08 03:36:09;;;;;;;15.90;3.78;;;;;;;;;;4993646;28;20408;-73
2022/04/08 03:38:35;;;;;;;16.02;4.35;;;;;;;;;;4991884;28;20498;-72
2022/04/08 03:41:01;;;;;;;14.00;3.58;;;;;;;;;;4994351;28;20037;-72
2022/04/08 03:43:28;;;;;;;13.40;3.50;;;;;;;;;;4992553;28;20070;-73
2022/04/08 03:45:54;;;;;;;17.05;3.55;;;;;;;;;;4993815;28;20015;-72
2022/04/08 03:48:20;;;;;;;15.52;4.03;;;;;;;;;;4993311;28;20065;-72
2022/04/08 03:50:46;;;;;;;14.35;3.15;;;;;;;;;;4993751;28;20025;-73
2022/04/08 03:53:13;;;;;;;19.55;3.55;;;;;;;;;;4991864;28;20408;-72
2022/04/08 03:55:39;;;;;;;15.60;3.80;;;;;;;;;;4992180;28;20029;-73
2022/04/08 03:58:05;;;;;;;15.95;3.45;;;;;;;;;;4993167;28;20033;-73
2022/04/08 04:00:31;;;;;;;9.90;2.95;;;;;;;;;;4992703;28;20026;-72
2022/04/08 04:02:57;;;;;;;10.88;3.03;;;;;;;;;;4993685;28;20482;-73
2022/04/08 04:05:24;;;;;;;15.15;3.75;;;;;;;;;;4991841;28;20041;-72
2022/04/08 04:07:50;;;;;;;15.60;2.63;;;;;;;;;;4993216;28;20387;-72
2022/04/08 04:10:16;;;;;;;15.02;2.80;;;;;;;;;;4992515;28;20125;-72
2022/04/08 04:12:42;;;;;;;13.55;3.45;;;;;;;;;;4991994;28;20081;-72
2022/04/08 04:15:09;;;;;;;14.52;3.17;;;;;;;;;;4991885;28;20790;-72
2022/04/08 04:17:35;;;;;;;19.77;3.47;;;;;;;;;;4993939;28;20036;-73
2022/04/08 04:20:01;;;;;;;14.98;3.33;;;;;;;;;;4994001;28;20471;-72
2022/04/08 04:22:27;;;;;;;13.63;3.10;;;;;;;;;;4993216;28;20093;-73
2022/04/08 04:24:53;;;;;;;13.88;3.33;;;;;;;;;;4991457;28;20045;-72
2022/04/08 04:27:19;;;;;;;13.45;3.35;;;;;;;;;;4992912;28;20049;-73
2022/04/08 04:29:45;;;;;;;13.82;3.15;;;;;;;;;;4992076;28;20031;-72
2022/04/08 04:32:11;;;;;;;16.65;3.40;;;;;;;;;;4992771;28;20027;-72
2022/04/08 04:34:38;;;;;;;19.58;3.08;;;;;;;;;;4993615;28;20041;-73
2022/04/08 04:37:10;;;;;;;14.93;2.97;;;;;;;;;;4992859;28;20482;-72
2022/04/08 04:39:36;;;;;;;13.45;2.78;;;;;;;;;;4991774;28;20155;-73
2022/04/08 04:42:02;;;;;;;31.02;4.05;;;;;;;;;;4992475;28;20379;-72
2022/04/08 04:44:28;;;;;;;17.98;3.65;;;;;;;;;;4992647;28;20125;-72
2022/04/08 04:46:55;;;;;;;23.55;4.30;;;;;;;;;;4990660;28;20029;-73
2022/04/08 04:49:21;;;;;;;17.90;3.28;;;;;;;;;;4991775;28;20101;-73
2022/04/08 04:51:48;;;;;;;15.82;4.28;;;;;;;;;;4993135;28;20024;-72
2022/04/08 04:54:14;;;;;;;16.23;3.97;;;;;;;;;;4993266;28;20084;-73
2022/04/08 04:56:40;;;;;;;14.13;3.47;;;;;;;;;;4993152;28;20112;-72
2022/04/08 04:59:06;;;;;;;14.15;3.15;;;;;;;;;;4992771;28;20493;-73
2022/04/08 05:01:32;;;;;;;21.33;4.32;;;;;;;;;;4992793;28;20140;-73
2022/04/08 05:03:58;;;;;;;13.93;2.97;;;;;;;;;;4993030;28;20039;-73
2022/04/08 05:06:24;;;;;;;15.35;2.88;;;;;;;;;;4993498;28;20088;-73
2022/04/08 05:08:50;;;;;;;15.23;2.97;;;;;;;;;;4993081;28;20027;-72
2022/04/08 05:11:16;;;;;;;18.08;3.03;;;;;;;;;;4993420;28;20031;-74
2022/04/08 05:13:42;;;;;;;15.13;4.57;;;;;;;;;;4993140;28;20030;-73
2022/04/08 05:16:08;;;;;;;13.73;3.67;;;;;;;;;;4992787;28;20030;-74
2022/04/08 05:18:35;;;;;;;13.68;3.42;;;;;;;;;;4993450;28;20033;-72
2022/04/08 05:21:01;;;;;;;13.02;3.33;;;;;;;;;;4993065;28;20022;-72
2022/04/08 05:23:29;;;;;;;17.25;3.42;;;;;;;;;;4993431;28;20081;-72
2022/04/08 05:25:56;;;;;;;17.17;3.70;;;;;;;;;;4993026;28;20105;-72
2022/04/08 05:28:22;;;;;;;18.02;3.97;;;;;;;;;;4992609;28;20026;-73
2022/04/08 05:30:48;;;;;;;15.35;3.28;;;;;;;;;;4992909;28;20027;-72
2022/04/08 05:33:14;;;;;;;14.30;3.40;;;;;;;;;;4992952;28;20041;-73
2022/04/08 05:35:40;;;;;;;16.25;3.97;;;;;;;;;;4995283;28;20054;-74
2022/04/08 05:38:06;;;;;;;13.25;3.72;;;;;;;;;;4997056;28;20030;-79
2022/04/08 05:40:32;;;;;;;16.88;3.83;;;;;;;;;;4996699;28;20105;-75
2022/04/08 05:42:58;;;;;;;19.27;3.58;;;;;;;;;;4996393;28;20042;-72
2022/04/08 05:45:24;;;;;;;11.55;4.38;;;;;;;;;;4996422;28;20085;-73
2022/04/08 05:47:52;;;;;;;19.85;4.07;;;;;;;;;;4996855;28;20030;-73
2022/04/08 05:50:19;;;;;;;20.52;4.13;;;;;;;;;;4996750;28;20372;-73
2022/04/08 05:52:47;;;;;;;20.02;3.63;;;;;;;;;;4996661;28;20029;-72
2022/04/08 05:55:13;;;;;;;18.58;3.28;;;;;;;;;;4997188;28;20030;-72
2022/04/08 05:57:40;;;;;;;13.85;3.42;;;;;;;;;;4996867;28;20113;-72
2022/04/08 06:00:10;;;;;;;20.90;3.75;;;;;;;;;;4996402;28;20030;-73
2022/04/08 06:02:36;;;;;;;16.52;3.60;;;;;;;;;;4996155;28;20043;-72
2022/04/08 06:05:02;;;;;;;20.55;4.30;;;;;;;;;;4996785;28;20093;-73
2022/04/08 06:07:28;;;;;;;14.20;3.50;;;;;;;;;;4997013;28;20026;-72
2022/04/08 06:09:56;;;;;;;20.30;4.70;;;;;;;;;;4996976;28;20042;-72
2022/04/08 06:12:22;;;;;;;15.73;3.35;;;;;;;;;;4996506;28;20026;-72
2022/04/08 06:14:48;;;;;;;17.90;3.47;;;;;;;;;;4996461;28;20049;-72
2022/04/08 06:17:14;;;;;;;15.88;3.60;;;;;;;;;;4996186;28;20109;-73
2022/04/08 06:19:40;;;;;;;14.30;3.70;;;;;;;;;;4996350;28;20064;-72
2022/04/08 06:22:07;;;;;;;16.55;3.65;;;;;;;;;;4996599;28;20056;-72
2022/04/08 06:24:33;;;;;;;20.55;3.65;;;;;;;;;;4996426;28;20165;-73
2022/04/08 06:26:59;;;;;;;16.55;3.60;;;;;;;;;;4996227;28;20089;-72
2022/04/08 06:29:25;;;;;;;14.90;3.45;;;;;;;;;;4994280;28;20109;-71
2022/04/08 06:31:51;;;;;;;20.83;3.53;;;;;;;;;;4995750;28;20036;-77
2022/04/08 06:34:17;;;;;;;21.92;2.97;;;;;;;;;;4996019;28;20375;-77
2022/04/08 06:36:43;;;;;;;13.98;3.42;;;;;;;;;;4995470;28;20034;-71
2022/04/08 06:39:09;;;;;;;16.85;3.60;;;;;;;;;;4995778;28;20110;-69
2022/04/08 06:41:35;;;;;;;12.15;3.70;;;;;;;;;;4995564;28;20054;-70
2022/04/08 06:44:02;;;;;;;18.40;3.65;;;;;;;;;;4995309;28;20664;-70
2022/04/08 06:46:28;;;;;;;19.83;4.22;;;;;;;;;;4995149;28;20105;-71
2022/04/08 06:48:56;;;;;;;18.40;3.33;;;;;;;;;;4995624;28;20081;-71
2022/04/08 06:51:22;;;;;;;14.75;3.05;;;;;;;;;;4995764;28;20037;-70
2022/04/08 06:53:48;;;;;;;25.33;4.38;;;;;;;;;;4995628;28;20076;-71
2022/04/08 06:56:14;;;;;;;21.52;3.92;;;;;;;;;;4995379;28;20034;-71
2022/04/08 06:58:40;;;;;;;16.25;4.50;;;;;;;;;;4995258;28;20034;-72
2022/04/08 07:01:07;;;;;;;25.38;4.18;;;;;;;;;;4995091;28;20054;-72
2022/04/08 07:03:33;;;;;;;22.13;4.43;;;;;;;;;;4994878;28;20073;-71
2022/04/08 07:05:59;;;;;;;17.38;3.40;;;;;;;;;;4995668;28;20049;-72
2022/04/08 07:08:25;;;;;;;14.90;3.95;;;;;;;;;;4995453;28;20023;-71
2022/04/08 07:10:51;;;;;;;18.25;4.10;;;;;;;;;;4995342;28;20483;-71
2022/04/08 07:13:17;;;;;;;21.02;3.63;;;;;;;;;;4995299;28;20026;-71
2022/04/08 07:15:43;;;;;;;17.05;4.35;;;;;;;;;;4995372;28;20035;-71
2022/04/08 07:18:10;;;;;;;18.58;3.50;;;;;;;;;;4995453;28;20033;-71
2022/04/08 07:20:36;;;;;;;17.17;3.65;;;;;;;;;;4995217;28;20109;-70
2022/04/08 07:23:03;;;;;;;13.65;3.55;;;;;;;;;;4994933;28;20089;-70
2022/04/08 07:25:29;;;;;;;16.95;3.67;;;;;;;;;;4994578;28;20045;-71
2022/04/08 07:27:58;;;;;;;20.77;3.97;;;;;;;;;;4995276;28;20489;-71
2022/04/08 07:30:24;;;;;;;16.77;3.15;;;;;;;;;;4995127;28;20038;-71
2022/04/08 07:32:52;;;;;;;10.55;2.65;;;;;;;;;;4994730;28;20114;-71
2022/04/08 07:35:18;;;;;;;16.38;3.47;;;;;;;;;;4995252;28;20403;-70
2022/04/08 07:37:45;;;;;;;15.77;3.63;;;;;;;;;;4995023;28;20139;-71
2022/04/08 07:40:12;;;;;;;20.95;3.38;;;;;;;;;;4995054;28;20064;-71
2022/04/08 07:42:38;;;;;;;16.60;3.55;;;;;;;;;;4995130;28;20046;-77
2022/04/08 07:45:05;;;;;;;23.45;4.00;;;;;;;;;;4994852;28;20109;-71
2022/04/08 07:47:31;;;;;;;18.92;4.35;;;;;;;;;;4993745;28;20101;-71
2022/04/08 07:50:01;;;;;;;18.42;3.65;;;;;;;;;;4994467;28;20023;-71
2022/04/08 07:52:27;;;;;;;19.00;4.40;;;;;;;;;;4994481;28;20106;-71
2022/04/08 07:54:54;;;;;;;18.63;3.70;;;;;;;;;;4994702;28;20026;-70
2022/04/08 07:57:20;;;;;;;18.70;4.57;;;;;;;;;;4994356;28;20501;-74
2022/04/08 07:59:46;;;;;;;16.70;4.10;;;;;;;;;;4994407;28;20062;-72
2022/04/08 08:02:12;;;;;;;17.90;3.85;;;;;;;;;;4994619;28;20538;-72
2022/04/08 08:04:38;;;;;;;26.13;4.10;;;;;;;;;;4994397;28;20042;-72
2022/04/08 08:07:05;;;;;;;22.20;4.07;;;;;;;;;;4994068;28;20031;-72
2022/04/08 08:09:32;;;;;;;19.15;3.92;;;;;;;;;;4994601;28;20039;-71
2022/04/08 08:11:58;;;;;;;23.15;4.88;;;;;;;;;;4994582;28;20022;-72
2022/04/08 08:14:24;;;;;;;22.20;3.60;;;;;;;;;;4994478;28;20503;-73
2022/04/08 08:16:50;;;;;;;16.52;3.60;;;;;;;;;;4994209;28;20102;-72
2022/04/08 08:19:16;;;;;;;17.88;3.40;;;;;;;;;;4994233;28;20050;-71
2022/04/08 08:21:42;;;;;;;17.50;3.25;;;;;;;;;;4993812;28;20486;-72
2022/04/08 08:24:09;;;;;;;17.15;3.90;;;;;;;;;;4994093;28;20048;-72
2022/04/08 08:26:35;;;;;;;21.83;3.58;;;;;;;;;;4992258;28;20419;-71
2022/04/08 08:29:01;;;;;;;22.70;3.60;;;;;;;;;;4993624;28;20065;-71
2022/04/08 08:31:27;;;;;;;18.70;3.67;;;;;;;;;;4993642;28;20037;-71
2022/04/08 08:33:53;;;;;;;22.17;4.13;;;;;;;;;;4993899;28;20030;-72
2022/04/08 08:36:19;;;;;;;16.52;4.20;;;;;;;;;;4993734;28;20038;-71
2022/04/08 08:38:45;;;;;;;15.65;3.50;;;;;;;;;;4993541;28;20023;-72
2022/04/08 08:41:12;;;;;;;14.63;3.58;;;;;;;;;;4994144;28;20390;-71
2022/04/08 08:43:38;;;;;;;17.40;3.70;;;;;;;;;;4992876;28;20046;-72
2022/04/08 08:46:05;;;;;;;15.48;3.50;;;;;;;;;;4991902;28;20073;-73
2022/04/08 08:48:34;;;;;;;23.00;3.47;;;;;;;;;;4991731;28;20023;-72
2022/04/08 08:51:03;;;;;;;19.52;3.15;;;;;;;;;;4991507;28;20022;-72
2022/04/08 08:53:30;;;;;;;19.75;3.60;;;;;;;;;;4990907;28;20022;-72
2022/04/08 08:55:56;;;;;;;17.55;4.00;;;;;;;;;;4990618;28;20030;-71
2022/04/08 08:58:23;;;;;;;14.13;3.13;;;;;;;;;;4991800;28;20023;-71
2022/04/08 09:00:49;;;;;;;20.77;3.70;;;;;;;;;;4991236;28;20458;-72
2022/04/08 09:03:15;;;;;;;15.95;3.65;;;;;;;;;;4991362;28;20033;-72
2022/04/08 09:05:42;;;;;;;17.20;3.72;;;;;;;;;;4991638;28;20129;-71
2022/04/08 09:08:08;;;;;;;15.82;3.13;;;;;;;;;;4992065;28;20041;-72
2022/04/08 09:10:36;;;;;;;13.50;3.25;;;;;;;;;;4992105;28;20391;-73
2022/04/08 09:13:03;;;;;;;21.85;3.45;;;;;;;;;;4993657;28;20026;-72
2022/04/08 09:15:29;;;;;;;15.02;3.30;;;;;;;;;;4993414;28;20018;-72
2022/04/08 09:18:05;;;;;;;15.48;3.35;;;;;;;;;;4993407;28;20031;-72
2022/04/08 09:20:41;;;;;;;13.90;3.20;;;;;;;;;;4993418;28;20026;-72
2022/04/08 09:23:08;;;;;;;18.35;4.15;;;;;;;;;;4993231;28;20042;-72
2022/04/08 09:25:34;;;;;;;16.15;3.25;;;;;;;;;;4993296;28;20419;-81
2022/04/08 09:28:06;;;;;;;13.95;3.10;;;;;;;;;;4992986;28;20417;-79
2022/04/08 09:30:32;;;;;;;14.10;3.33;;;;;;;;;;4992789;28;20026;-72
2022/04/08 09:32:58;;;;;;;15.48;3.10;;;;;;;;;;4991961;28;20062;-72
2022/04/08 09:35:27;;;;;;;19.27;4.07;;;;;;;;;;4990903;28;20025;-72
2022/04/08 09:38:00;;;;;;;19.08;3.13;;;;;;;;;;4993145;28;20026;-73
2022/04/08 09:40:26;;;;;;;18.00;3.20;;;;;;;;;;4992799;28;20018;-72
2022/04/08 09:42:53;;;;;;;19.60;3.40;;;;;;;;;;4992508;28;20045;-72
2022/04/08 09:45:32;;;;;;;13.93;2.88;;;;;;;;;;4993042;28;20023;-72
2022/04/08 09:48:01;;;;;;;16.67;3.30;;;;;;;;;;4992064;28;20130;-72
2022/04/08 09:50:28;;;;;;;16.23;4.68;;;;;;;;;;4991582;28;20502;-73
2022/04/08 09:52:54;;;;;;;23.60;3.70;;;;;;;;;;4992185;28;20030;-73
2022/04/08 09:55:22;;;;;;;19.40;3.22;;;;;;;;;;4992995;28;20026;-72
2022/04/08 09:57:49;;;;;;;17.42;4.05;;;;;;;;;;4993214;28;20026;-73
2022/04/08 10:00:15;;;;;;;18.30;3.80;;;;;;;;;;4993221;28;20027;-72
2022/04/08 10:02:42;;;;;;;18.58;3.28;;;;;;;;;;4992883;28;20380;-72
2022/04/08 10:05:09;;;;;;;14.77;3.00;;;;;;;;;;4993116;28;20030;-73
2022/04/08 10:07:36;;;;;;;16.92;4.03;;;;;;;;;;4992768;28;20375;-73
2022/04/08 10:10:09;;;;;;;10.75;3.28;;;;;;;;;;4992853;28;20030;-72
2022/04/08 10:13:05;;;;;;;15.98;2.90;;;;;;;;;;4992338;28;20022;-72
2022/04/08 10:15:34;;;;;;;12.00;2.55;;;;;;;;;;4992529;28;20022;-72
2022/04/08 10:18:03;;;;;;;12.05;2.70;;;;;;;;;;4992449;28;20100;-72
2022/04/08 10:20:29;;;;;;;15.73;2.95;;;;;;;;;;4992468;28;20073;-72
2022/04/08 10:23:09;;;;;;;11.30;2.70;;;;;;;;;;4994891;28;20098;-71
2022/04/08 10:25:39;;;;;;;11.70;2.22;;;;;;;;;;4994297;28;20135;-74
2022/04/08 10:28:06;;;;;;;10.45;2.42;;;;;;;;;;4995029;28;20026;-71
2022/04/08 10:30:36;;;;;;;14.23;2.80;;;;;;;;;;4996073;28;20032;-72
2022/04/08 10:33:03;;;;;;;14.23;3.45;;;;;;;;;;4995915;28;20031;-71
2022/04/08 10:35:29;;;;;;;13.38;2.85;;;;;;;;;;4996112;28;20030;-70
2022/04/08 10:37:59;;;;;;;15.80;3.55;;;;;;;;;;4996181;28;20091;-70
2022/04/08 10:40:40;;;;;;;14.77;3.00;;;;;;;;;;4996061;28;20027;-70
2022/04/08 10:43:08;;;;;;;12.93;3.00;;;;;;;;;;4994927;28;20117;-70
2022/04/08 10:45:34;;;;;;;13.02;3.13;;;;;;;;;;4995012;28;20030;-70
2022/04/08 10:48:09;;;;;;;10.52;2.63;;;;;;;;;;4995792;28;20030;-70
2022/04/08 10:50:36;;;;;;;14.90;2.60;;;;;;;;;;4993217;28;20054;-70
2022/04/08 10:53:09;;;;;;;9.55;2.47;;;;;;;;;;4994923;28;20089;-70
2022/04/08 10:56:08;;;;;;;15.73;3.30;;;;;;;;;;4994430;28;20034;-71
2022/04/08 10:58:35;;;;;;;12.63;2.60;;;;;;;;;;4982850;28;20042;-71
2022/04/08 11:01:01;;;;;;;14.52;3.33;;;;;;;;;;4994865;28;20042;-70
2022/04/08 11:03:28;;;;;;;14.02;3.53;;;;;;;;;;4995504;28;20034;-70
2022/04/08 11:05:54;;;;;;;17.05;2.83;;;;;;;;;;4995931;28;20026;-70
2022/04/08 11:08:23;;;;;;;17.73;2.72;;;;;;;;;;4995711;28;20031;-70
2022/04/08 11:10:56;;;;;;;14.85;2.83;;;;;;;;;;4995951;28;20035;-70
2022/04/08 11:13:21;;;;;;;12.88;3.33;;;;;;;;;;4994119;28;20069;-75
2022/04/08 11:15:48;;;;;;;19.90;3.17;;;;;;;;;;4992626;28;20061;-70
2022/04/08 11:18:14;;;;;;;18.70;3.38;;;;;;;;;;4993487;28;20030;-70
2022/04/08 11:20:40;;;;;;;13.60;3.53;;;;;;;;;;4994273;28;20490;-71
2022/04/08 11:23:06;;;;;;;14.75;3.17;;;;;;;;;;4994112;28;20046;-71
2022/04/08 11:25:32;;;;;;;15.88;2.90;;;;;;;;;;4994664;28;20415;-70
2022/04/08 11:27:59;;;;;;;10.90;2.85;;;;;;;;;;4995047;28;20022;-71
2022/04/08 11:30:26;;;;;;;18.00;2.75;;;;;;;;;;4995280;28;20027;-71
2022/04/08 11:32:52;;;;;;;15.73;2.80;;;;;;;;;;4994936;28;20467;-71
2022/04/08 11:35:18;;;;;;;14.27;2.97;;;;;;;;;;4994500;28;20080;-70
2022/04/08 11:37:44;;;;;;;15.35;3.10;;;;;;;;;;4992279;28;20046;-71
2022/04/08 11:40:16;;;;;;;17.45;2.58;;;;;;;;;;4992271;28;20038;-71
2022/04/08 11:42:42;;;;;;;10.77;2.35;;;;;;;;;;4993500;28;20031;-70
2022/04/08 11:45:09;;;;;;;9.05;2.42;;;;;;;;;;4994471;28;20550;-74
2022/04/08 11:47:40;;;;;;;20.08;2.42;;;;;;;;;;4994707;28;20027;-80
2022/04/08 11:50:07;;;;;;;11.40;2.38;;;;;;;;;;4994647;28;20037;-79
2022/04/08 11:52:33;;;;;;;11.32;2.42;;;;;;;;;;4994672;28;20483;-80
2022/04/08 11:55:04;;;;;;;12.77;2.67;;;;;;;;;;4994748;28;20394;-71
2022/04/08 11:57:31;;;;;;;10.60;2.25;;;;;;;;;;4994899;28;20023;-70
2022/04/08 11:59:57;;;;;;;12.38;2.22;;;;;;;;;;4994597;28;20372;-71
2022/04/08 12:02:23;;;;;;;12.52;2.90;;;;;;;;;;4994422;28;20042;-80
2022/04/08 12:04:52;;;;;;;13.15;2.55;;;;;;;;;;4994713;28;20460;-78
2022/04/08 12:07:23;;;;;;;10.65;2.45;;;;;;;;;;4994435;28;20030;-71
2022/04/08 12:09:49;;;;;;;10.85;2.42;;;;;;;;;;4993031;28;20046;-72
2022/04/08 12:12:22;;;;;;;9.80;1.90;;;;;;;;;;4991692;28;20031;-70
2022/04/08 12:14:48;;;;;;;10.57;2.30;;;;;;;;;;4992689;28;20030;-70
2022/04/08 12:17:14;;;;;;;11.63;1.95;;;;;;;;;;4994133;28;20084;-70
2022/04/08 12:19:40;;;;;;;9.05;2.08;;;;;;;;;;4994408;28;20045;-70
2022/04/08 12:22:10;;;;;;;11.25;2.10;;;;;;;;;;4994659;28;20048;-70
2022/04/08 12:24:39;;;;;;;9.65;2.30;;;;;;;;;;4993805;28;20499;-71
2022/04/08 12:27:11;;;;;;;9.02;2.35;;;;;;;;;;4993789;28;20026;-70
2022/04/08 12:29:39;;;;;;;9.73;2.20;;;;;;;;;;4993931;28;20027;-77
2022/04/08 12:32:12;;;;;;;8.30;2.47;;;;;;;;;;4993799;28;20098;-71
2022/04/08 12:34:38;;;;;;;10.20;2.10;;;;;;;;;;4993671;28;20076;-70
2022/04/08 12:37:04;;;;;;;9.05;1.98;;;;;;;;;;4993944;28;20026;-70
2022/04/08 12:39:30;;;;;;;8.40;2.42;;;;;;;;;;4993760;28;20023;-70
2022/04/08 12:41:59;;;;;;;8.80;1.83;;;;;;;;;;4993577;28;20080;-70
2022/04/08 12:44:25;;;;;;;14.93;2.50;;;;;;;;;;4992888;28;20517;-71
2022/04/08 12:46:53;;;;;;;8.45;1.83;;;;;;;;;;4994080;28;20030;-70
2022/04/08 12:49:19;;;;;;;9.38;2.10;;;;;;;;;;4993361;28;20475;-71
2022/04/08 12:51:45;;;;;;;10.68;1.95;;;;;;;;;;4993768;28;20019;-71
2022/04/08 12:54:12;;;;;;;8.15;2.05;;;;;;;;;;4993230;28;20033;-71
2022/04/08 12:56:38;;;;;;;6.70;1.52;;;;;;;;;;4992123;28;20472;-69
2022/04/08 12:59:04;;;;;;;10.93;2.25;;;;;;;;;;4993266;28;20061;-70
2022/04/08 13:01:31;;;;;;;8.00;1.80;;;;;;;;;;4993119;28;20487;-70
2022/04/08 13:03:57;;;;;;;11.77;2.30;;;;;;;;;;4993137;28;20069;-70
2022/04/08 13:06:24;;;;;;;4.75;1.38;;;;;;;;;;4992914;28;20050;-70
2022/04/08 13:08:51;;;;;;;12.68;2.00;;;;;;;;;;4992919;28;20030;-71
2022/04/08 13:11:17;;;;;;;9.70;1.73;;;;;;;;;;4992724;28;20379;-71
2022/04/08 13:13:43;;;;;;;6.65;1.63;;;;;;;;;;4992692;28;20400;-70
2022/04/08 13:16:09;;;;;;;11.25;1.80;;;;;;;;;;4992973;28;20089;-70
2022/04/08 13:18:35;;;;;;;8.18;1.92;;;;;;;;;;4990990;28;20026;-70
2022/04/08 13:21:01;;;;;;;8.95;1.80;;;;;;;;;;4992955;28;20097;-70
2022/04/08 13:23:28;;;;;;;7.95;1.80;;;;;;;;;;4992720;28;20101;-71
2022/04/08 13:25:54;;;;;;;9.68;1.88;;;;;;;;;;4993253;28;20364;-71
2022/04/08 13:28:20;;;;;;;13.75;2.55;;;;;;;;;;4993111;28;20027;-70
2022/04/08 13:30:46;;;;;;;8.60;2.22;;;;;;;;;;4992834;28;20459;-71
2022/04/08 13:33:12;;;;;;;13.00;2.15;;;;;;;;;;4992034;28;20038;-68
2022/04/08 13:35:38;;;;;;;11.93;1.77;;;;;;;;;;4992657;28;20053;-69
2022/04/08 13:38:04;;;;;;;9.77;1.63;;;;;;;;;;4993051;28;20026;-70
2022/04/08 13:40:31;;;;;;;8.80;2.03;;;;;;;;;;4992661;28;20030;-69
2022/04/08 13:43:00;;;;;;;7.97;1.50;;;;;;;;;;4992604;28;20398;-70
2022/04/08 13:45:26;;;;;;;10.40;1.50;;;;;;;;;;4992687;28;20037;-70
2022/04/08 13:47:52;;;;;;;8.25;2.42;;;;;;;;;;4992625;28;20113;-71
2022/04/08 13:50:18;;;;;;;11.63;1.50;;;;;;;;;;4992908;28;20055;-75
2022/04/08 13:52:44;;;;;;;9.05;1.45;;;;;;;;;;4992597;28;20026;-72
2022/04/08 13:55:10;;;;;;;11.32;1.77;;;;;;;;;;4992425;28;20033;-69
2022/04/08 13:57:36;;;;;;;11.45;1.60;;;;;;;;;;4996002;28;20034;-70
2022/04/08 14:00:03;;;;;;;7.70;1.48;;;;;;;;;;4995814;28;20022;-79
2022/04/08 14:02:29;;;;;;;8.80;2.28;;;;;;;;;;4996258;28;20054;-79
2022/04/08 14:04:56;;;;;;;9.30;1.80;;;;;;;;;;4995909;28;20053;-70
2022/04/08 14:07:22;;;;;;;8.77;1.75;;;;;;;;;;4996283;28;20019;-73
2022/04/08 14:09:48;;;;;;;11.10;2.42;;;;;;;;;;4996254;28;20026;-79
2022/04/08 14:12:14;;;;;;;16.27;1.88;;;;;;;;;;4996300;28;20022;-71
2022/04/08 14:14:43;;;;;;;11.38;2.00;;;;;;;;;;4996441;28;20010;-70
2022/04/08 14:17:09;;;;;;;10.48;1.77;;;;;;;;;;4996452;28;20114;-70
2022/04/08 14:19:35;;;;;;;9.55;1.55;;;;;;;;;;4996011;28;20483;-69
2022/04/08 14:22:01;;;;;;;12.00;2.05;;;;;;;;;;4996417;28;20026;-70
2022/04/08 14:24:27;;;;;;;8.50;1.70;;;;;;;;;;4995137;28;20096;-69
2022/04/08 14:26:53;;;;;;;9.15;1.40;;;;;;;;;;4996179;28;20031;-69